createdAt,value
2023-05-10T00:01:08.621Z,10.45
2023-05-10T00:04:11.542Z,10.48
2023-05-10T00:07:14.080Z,10.34
2023-05-10T00:10:17.104Z,10.34
2023-05-10T00:13:19.878Z,10.36
2023-05-10T00:16:22.857Z,10.23
2023-05-10T00:19:25.491Z,10.24
2023-05-10T00:22:28.198Z,10.08
2023-05-10T00:25:31.569Z,10.07
2023-05-10T00:28:34.355Z,10.05
2023-05-10T00:31:37.026Z,9.98
2023-05-10T00:34:39.861Z,9.96
2023-05-10T00:37:42.580Z,10.01
2023-05-10T00:40:45.443Z,9.94
2023-05-10T00:43:49.363Z,9.83
2023-05-10T00:46:52.186Z,9.85
2023-05-10T00:53:00.770Z,9.77
2023-05-10T00:56:04.317Z,9.79
2023-05-10T00:59:07.218Z,9.76
2023-05-10T01:02:10.753Z,9.70
2023-05-10T01:05:15.200Z,9.63
2023-05-10T01:08:18.328Z,9.63
2023-05-10T01:11:20.868Z,9.55
2023-05-10T01:14:24.172Z,9.47
2023-05-10T01:17:26.869Z,9.42
2023-05-10T01:20:37.578Z,9.43
2023-05-10T01:24:14.148Z,9.44
2023-05-10T01:27:29.315Z,9.39
2023-05-10T01:31:03.890Z,9.36
2023-05-10T01:34:21.192Z,9.27
2023-05-10T01:37:32.037Z,9.25
2023-05-10T01:40:43.411Z,9.18
2023-05-10T01:44:00.349Z,9.26
2023-05-10T01:47:11.308Z,9.20
2023-05-10T01:50:21.096Z,9.20
2023-05-10T01:53:24.939Z,9.13
2023-05-10T01:56:29.407Z,9.09
2023-05-10T01:59:41.915Z,9.15
2023-05-10T02:02:48.864Z,8.99
2023-05-10T02:05:53.382Z,8.97
2023-05-10T02:08:58.381Z,9.02
2023-05-10T02:12:04.374Z,8.98
2023-05-10T02:15:09.051Z,8.98
2023-05-10T02:18:13.528Z,8.89
2023-05-10T02:21:16.605Z,8.91
2023-05-10T02:24:19.952Z,8.81
2023-05-10T02:27:23.186Z,8.80
2023-05-10T02:30:26.150Z,8.74
2023-05-10T02:33:29.989Z,8.71
2023-05-10T02:36:33.304Z,8.68
2023-05-10T02:39:36.091Z,8.66
2023-05-10T02:42:43.231Z,8.68
2023-05-10T02:45:48.333Z,8.67
2023-05-10T02:48:51.220Z,8.66
2023-05-10T02:51:57.879Z,8.66
2023-05-10T02:55:03.265Z,8.62
2023-05-10T02:58:05.982Z,8.57
2023-05-10T03:01:09.044Z,8.66
2023-05-10T03:04:11.819Z,8.67
2023-05-10T03:07:14.756Z,8.58
2023-05-10T03:10:18.726Z,8.43
2023-05-10T03:13:46.147Z,8.43
2023-05-10T03:16:56.256Z,8.44
2023-05-10T03:20:04.873Z,8.37
2023-05-10T03:23:21.209Z,8.32
2023-05-10T03:26:28.516Z,8.29
2023-05-10T03:29:33.078Z,8.30
2023-05-10T03:32:35.982Z,8.29
2023-05-10T03:35:38.484Z,8.36
2023-05-10T03:38:42.134Z,8.28
2023-05-10T03:41:44.680Z,8.30
2023-05-10T03:44:47.624Z,8.33
2023-05-10T03:47:50.162Z,8.37
2023-05-10T03:50:53.127Z,8.44
2023-05-10T03:53:56.583Z,8.45
2023-05-10T03:56:59.718Z,8.47
2023-05-10T04:00:04.568Z,8.55
2023-05-10T04:03:16.971Z,8.63
2023-05-10T04:06:19.918Z,8.71
2023-05-10T04:09:23.343Z,8.82
2023-05-10T04:12:26.209Z,8.93
2023-05-10T04:15:28.851Z,8.98
2023-05-10T04:18:32.290Z,9.06
2023-05-10T04:21:34.784Z,9.21
2023-05-10T04:24:37.549Z,9.40
2023-05-10T04:27:40.082Z,9.42
2023-05-10T04:30:43.025Z,9.49
2023-05-10T04:33:45.599Z,9.96
2023-05-10T04:36:48.344Z,10.38
2023-05-10T04:39:51.811Z,10.39
2023-05-10T04:42:54.533Z,10.13
2023-05-10T04:45:59.899Z,10.00
2023-05-10T04:49:02.714Z,9.91
2023-05-10T04:52:25.154Z,9.89
2023-05-10T04:55:28.028Z,9.94
2023-05-10T04:58:31.323Z,9.99
2023-05-10T05:01:34.225Z,10.05
2023-05-10T05:04:36.768Z,10.13
2023-05-10T05:07:39.838Z,10.21
2023-05-10T05:13:47.755Z,10.62
2023-05-10T05:16:53.023Z,11.27
2023-05-10T05:19:55.882Z,11.51
2023-05-10T05:22:58.421Z,11.64
2023-05-10T05:26:01.118Z,11.98
2023-05-10T05:29:03.975Z,12.50
2023-05-10T05:32:06.833Z,12.04
2023-05-10T05:35:11.205Z,12.19
2023-05-10T05:38:14.056Z,12.20
2023-05-10T05:41:16.550Z,11.93
2023-05-10T05:44:19.406Z,11.88
2023-05-10T05:47:22.082Z,11.86
2023-05-10T05:50:24.931Z,11.85
2023-05-10T05:53:27.571Z,11.91
2023-05-10T05:56:30.339Z,11.97
2023-05-10T05:59:32.938Z,12.19
2023-05-10T06:02:35.857Z,12.15
2023-05-10T06:05:38.879Z,12.09
2023-05-10T06:08:42.265Z,12.33
2023-05-10T06:11:47.671Z,12.31
2023-05-10T06:14:52.801Z,12.38
2023-05-10T06:17:58.600Z,12.58
2023-05-10T06:21:03.931Z,12.63
2023-05-10T06:24:07.706Z,12.70
2023-05-10T06:27:10.237Z,12.93
2023-05-10T06:30:14.457Z,13.01
2023-05-10T06:33:17.108Z,13.11
2023-05-10T06:36:19.960Z,13.24
2023-05-10T06:39:22.469Z,13.27
2023-05-10T06:42:26.486Z,13.28
2023-05-10T06:45:28.966Z,13.33
2023-05-10T06:48:31.972Z,13.31
2023-05-10T06:51:34.505Z,13.44
2023-05-10T06:54:57.171Z,13.87
2023-05-10T06:57:59.647Z,13.82
2023-05-10T07:01:08.448Z,14.13
2023-05-10T07:04:11.321Z,14.30
2023-05-10T07:07:15.080Z,14.54
2023-05-10T07:10:17.613Z,14.63
2023-05-10T07:13:20.688Z,14.92
2023-05-10T07:16:23.283Z,15.18
2023-05-10T07:19:26.431Z,15.45
2023-05-10T07:22:28.885Z,16.23
2023-05-10T07:25:32.025Z,17.41
2023-05-10T07:28:34.528Z,18.57
2023-05-10T07:31:37.378Z,18.75
2023-05-10T07:34:39.859Z,19.35
2023-05-10T07:37:42.661Z,19.70
2023-05-10T07:40:45.101Z,20.02
2023-05-10T07:43:47.900Z,20.77
2023-05-10T07:46:50.705Z,21.14
2023-05-10T07:49:53.546Z,20.75
2023-05-10T07:52:56.161Z,20.98
2023-05-10T07:55:59.475Z,22.12
2023-05-10T07:59:04.759Z,21.55
2023-05-10T08:02:07.636Z,21.35
2023-05-10T08:05:10.591Z,21.61
2023-05-10T08:08:13.437Z,22.21
2023-05-10T08:11:19.762Z,22.46
2023-05-10T08:14:22.252Z,22.44
2023-05-10T08:17:24.971Z,23.27
2023-05-10T08:20:27.563Z,22.80
2023-05-10T08:23:30.260Z,23.30
2023-05-10T08:26:33.577Z,23.12
2023-05-10T08:29:48.791Z,21.61
2023-05-10T08:32:52.754Z,22.35
2023-05-10T08:35:55.521Z,24.65
2023-05-10T08:38:58.013Z,23.12
2023-05-10T08:42:03.136Z,24.06
2023-05-10T08:45:08.339Z,22.43
2023-05-10T08:48:11.833Z,22.20
2023-05-10T08:51:23.158Z,23.56
2023-05-10T08:54:26.160Z,25.71
2023-05-10T08:57:28.936Z,24.39
2023-05-10T09:00:31.821Z,25.38
2023-05-10T09:03:36.421Z,24.50
2023-05-10T09:06:39.472Z,25.13
2023-05-10T09:09:43.552Z,23.38
2023-05-10T09:12:46.543Z,24.51
2023-05-10T09:15:49.451Z,25.80
2023-05-10T09:18:52.274Z,24.26
2023-05-10T09:21:56.888Z,25.02
2023-05-10T09:25:10.584Z,25.15
2023-05-10T09:28:13.342Z,24.58
2023-05-10T09:31:16.179Z,25.99
2023-05-10T09:34:20.974Z,25.89
2023-05-10T09:37:30.733Z,27.02
2023-05-10T09:40:33.489Z,25.78
2023-05-10T09:43:39.338Z,25.30
2023-05-10T09:46:42.571Z,25.15
2023-05-10T09:49:45.578Z,24.41
2023-05-10T09:53:00.158Z,23.71
2023-05-10T09:56:03.082Z,25.57
2023-05-10T09:59:06.565Z,25.40
2023-05-10T10:02:09.387Z,24.97
2023-05-10T10:05:12.706Z,24.74
2023-05-10T10:08:16.243Z,27.27
2023-05-10T10:11:19.860Z,26.00
2023-05-10T10:14:23.856Z,25.30
2023-05-10T10:17:29.142Z,24.25
2023-05-10T10:20:31.607Z,25.14
2023-05-10T10:23:34.371Z,25.01
2023-05-10T10:26:39.309Z,26.21
2023-05-10T10:30:14.154Z,24.03
2023-05-10T10:33:35.483Z,24.67
2023-05-10T10:36:46.485Z,22.87
2023-05-10T10:39:52.119Z,23.34
2023-05-10T10:42:56.224Z,24.71
2023-05-10T10:46:14.019Z,23.71
2023-05-10T10:49:18.469Z,25.44
2023-05-10T10:52:29.100Z,25.11
2023-05-10T10:55:32.206Z,22.67
2023-05-10T10:58:35.417Z,24.59
2023-05-10T11:01:43.727Z,24.04
2023-05-10T11:04:47.768Z,24.32
2023-05-10T11:07:57.974Z,24.34
2023-05-10T11:11:00.331Z,23.99
2023-05-10T11:14:05.981Z,22.76
2023-05-10T11:17:30.246Z,22.64
2023-05-10T11:20:41.911Z,21.73
2023-05-10T11:23:44.594Z,21.75
2023-05-10T11:26:47.487Z,23.18
2023-05-10T11:29:52.825Z,23.21
2023-05-10T11:32:56.457Z,23.05
2023-05-10T11:35:58.886Z,23.51
2023-05-10T11:39:01.696Z,24.01
2023-05-10T11:42:04.523Z,24.69
2023-05-10T11:45:08.998Z,22.80
2023-05-10T11:48:11.584Z,23.97
2023-05-10T11:51:14.390Z,24.15
2023-05-10T11:54:16.851Z,23.78
2023-05-10T11:57:21.272Z,22.07
2023-05-10T12:00:23.802Z,21.54
2023-05-10T12:03:27.252Z,20.97
2023-05-10T12:06:32.830Z,20.93
2023-05-10T12:09:43.729Z,20.42
2023-05-10T12:12:50.628Z,20.34
2023-05-10T12:15:53.544Z,19.59
2023-05-10T12:19:01.121Z,19.93
2023-05-10T12:22:06.460Z,19.94
2023-05-10T12:25:11.928Z,20.59
2023-05-10T12:28:14.713Z,19.85
2023-05-10T12:31:17.665Z,19.86
2023-05-10T12:34:47.590Z,20.02
2023-05-10T12:37:50.044Z,20.16
2023-05-10T12:40:53.031Z,20.41
2023-05-10T12:43:55.498Z,20.56
2023-05-10T12:46:58.275Z,20.45
2023-05-10T12:50:02.445Z,20.15
2023-05-10T12:53:05.351Z,20.16
2023-05-10T12:56:08.125Z,20.36
2023-05-10T12:59:11.014Z,19.99
2023-05-10T13:02:14.052Z,20.21
2023-05-10T13:05:16.860Z,20.67
2023-05-10T13:08:19.360Z,20.79
2023-05-10T13:11:22.599Z,20.82
2023-05-10T13:14:25.484Z,19.98
2023-05-10T13:17:28.351Z,19.63
2023-05-10T13:20:30.780Z,19.65
2023-05-10T13:23:33.480Z,19.83
2023-05-10T13:26:37.289Z,19.97
2023-05-10T13:29:40.278Z,20.04
2023-05-10T13:32:42.772Z,19.89
2023-05-10T13:35:46.224Z,19.51
2023-05-10T13:38:48.628Z,19.40
2023-05-10T13:41:52.049Z,19.25
2023-05-10T13:44:55.852Z,19.36
2023-05-10T13:47:58.598Z,18.96
2023-05-10T13:51:01.055Z,19.04
2023-05-10T13:54:04.671Z,19.03
2023-05-10T13:57:07.658Z,19.06
2023-05-10T14:03:14.714Z,19.41
2023-05-10T14:06:17.186Z,19.62
2023-05-10T14:09:20.330Z,19.61
2023-05-10T14:12:22.757Z,19.54
2023-05-10T14:15:25.511Z,19.34
2023-05-10T14:21:31.894Z,19.05
2023-05-10T14:27:38.065Z,19.23
2023-05-10T14:30:40.578Z,19.29
2023-05-10T14:33:43.914Z,19.25
2023-05-10T14:36:46.460Z,19.20
2023-05-10T14:39:49.271Z,19.23
2023-05-10T14:42:53.326Z,19.32
2023-05-10T14:45:56.071Z,19.45
2023-05-10T14:48:59.708Z,19.27
2023-05-10T14:52:02.615Z,19.15
2023-05-10T14:55:23.804Z,19.23
2023-05-10T14:58:26.712Z,19.15
2023-05-10T15:01:29.657Z,19.12
2023-05-10T15:04:33.236Z,19.19
2023-05-10T15:07:36.133Z,19.22
2023-05-10T15:10:39.561Z,19.06
2023-05-10T15:16:45.584Z,18.91
2023-05-10T15:19:48.093Z,18.98
2023-05-10T15:22:50.827Z,19.08
2023-05-10T15:25:56.541Z,18.96
2023-05-10T15:28:59.551Z,18.96
2023-05-10T15:32:02.874Z,18.99
2023-05-10T15:35:06.371Z,19.04
2023-05-10T15:38:10.602Z,18.83
2023-05-10T15:41:13.307Z,18.97
2023-05-10T15:44:15.831Z,18.92
2023-05-10T15:47:18.593Z,18.80
2023-05-10T15:50:21.067Z,18.81
2023-05-10T15:53:23.847Z,18.80
2023-05-10T15:56:26.753Z,18.77
2023-05-10T15:59:29.530Z,18.69
2023-05-10T16:02:32.564Z,18.60
2023-05-10T16:05:35.551Z,18.59
2023-05-10T16:08:38.110Z,18.56
2023-05-10T16:11:40.869Z,18.52
2023-05-10T16:14:43.364Z,18.64
2023-05-10T16:17:46.408Z,18.59
2023-05-10T16:20:49.267Z,18.66
2023-05-10T16:23:52.006Z,18.74
2023-05-10T16:26:54.436Z,18.71
2023-05-10T16:29:57.167Z,18.78
2023-05-10T16:33:00.970Z,18.79
2023-05-10T16:36:04.924Z,18.67
2023-05-10T16:39:09.113Z,18.67
2023-05-10T16:42:11.809Z,18.49
2023-05-10T16:45:14.396Z,18.42
2023-05-10T16:48:17.298Z,18.29
2023-05-10T16:54:23.614Z,18.11
2023-05-10T16:57:26.273Z,18.04
2023-05-10T17:00:30.334Z,17.98
2023-05-10T17:03:36.819Z,17.87
2023-05-10T17:06:40.200Z,17.81
2023-05-10T17:09:43.853Z,17.77
2023-05-10T17:12:46.894Z,17.76
2023-05-10T17:15:49.409Z,17.75
2023-05-10T17:18:53.255Z,17.69
2023-05-10T17:21:55.882Z,17.66
2023-05-10T17:24:58.613Z,17.53
2023-05-10T17:28:01.303Z,17.44
2023-05-10T17:31:04.215Z,17.34
2023-05-10T17:34:06.796Z,17.22
2023-05-10T17:37:10.587Z,17.20
2023-05-10T17:40:13.095Z,17.00
2023-05-10T17:43:15.842Z,16.90
2023-05-10T17:46:18.532Z,16.88
2023-05-10T17:49:21.366Z,16.73
2023-05-10T17:52:23.807Z,16.62
2023-05-10T17:55:27.197Z,16.50
2023-05-10T17:58:30.402Z,16.47
2023-05-10T18:01:33.295Z,16.25
2023-05-10T18:04:36.262Z,16.24
2023-05-10T18:07:39.679Z,15.93
2023-05-10T18:10:42.470Z,15.86
2023-05-10T18:13:44.912Z,15.80
2023-05-10T18:16:47.779Z,15.51
2023-05-10T18:19:50.283Z,15.53
2023-05-10T18:22:53.013Z,15.52
2023-05-10T18:25:55.507Z,15.49
2023-05-10T18:29:01.374Z,15.39
2023-05-10T18:32:04.450Z,15.39
2023-05-10T18:35:08.302Z,15.32
2023-05-10T18:38:10.991Z,15.18
2023-05-10T18:41:15.591Z,15.18
2023-05-10T18:44:19.058Z,15.13
2023-05-10T18:47:23.743Z,15.12
2023-05-10T18:50:26.413Z,15.03
2023-05-10T18:53:29.390Z,15.13
2023-05-10T18:56:31.847Z,15.02
2023-05-10T18:59:34.804Z,14.97
2023-05-10T19:02:38.793Z,14.94
2023-05-10T19:05:41.700Z,14.96
2023-05-10T19:08:44.453Z,14.90
2023-05-10T19:11:47.447Z,14.76
2023-05-10T19:14:50.094Z,14.70
2023-05-10T19:17:53.163Z,14.77
2023-05-10T19:20:56.558Z,14.52
2023-05-10T19:24:01.352Z,14.62
2023-05-10T19:27:04.370Z,14.42
2023-05-10T19:30:08.219Z,14.36
2023-05-10T19:33:12.570Z,14.40
2023-05-10T19:36:15.532Z,14.47
2023-05-10T19:39:18.217Z,14.31
2023-05-10T19:42:21.274Z,14.19
2023-05-10T19:45:23.892Z,14.21
2023-05-10T19:48:27.023Z,14.25
2023-05-10T19:51:29.781Z,14.23
2023-05-10T19:54:32.654Z,14.29
2023-05-10T19:57:35.567Z,14.37
2023-05-10T20:00:38.361Z,14.41
2023-05-10T20:03:41.131Z,14.43
2023-05-10T20:06:43.891Z,14.43
2023-05-10T20:09:46.829Z,14.38
2023-05-10T20:12:53.251Z,14.43
2023-05-10T20:15:59.769Z,14.41
2023-05-10T20:19:04.688Z,14.22
2023-05-10T20:22:09.372Z,14.28
2023-05-10T20:25:12.166Z,14.38
2023-05-10T20:31:19.033Z,14.37
2023-05-10T20:34:22.003Z,14.37
2023-05-10T20:37:24.547Z,14.30
2023-05-10T20:40:27.575Z,14.20
2023-05-10T20:43:30.045Z,14.17
2023-05-10T20:46:34.713Z,14.09
2023-05-10T20:49:38.038Z,14.10
2023-05-10T20:52:40.739Z,14.09
2023-05-10T20:55:43.184Z,14.13
2023-05-10T20:58:45.939Z,14.07
2023-05-10T21:01:48.383Z,13.99
2023-05-10T21:04:52.005Z,14.01
2023-05-10T21:07:56.204Z,13.95
2023-05-10T21:14:04.920Z,13.83
2023-05-10T21:17:07.606Z,13.70
2023-05-10T21:20:10.707Z,13.64
2023-05-10T21:23:13.752Z,13.59
2023-05-10T21:26:17.830Z,13.58
2023-05-10T21:29:20.658Z,13.57
2023-05-10T21:32:23.143Z,13.53
2023-05-10T21:35:26.461Z,13.46
2023-05-10T21:38:29.052Z,13.43
2023-05-10T21:41:31.808Z,13.46
2023-05-10T21:44:34.238Z,13.45
2023-05-10T21:47:37.239Z,13.50
2023-05-10T21:50:39.716Z,13.52
2023-05-10T21:53:42.426Z,13.50
2023-05-10T21:56:44.997Z,13.39
2023-05-10T21:59:47.736Z,13.51
2023-05-10T22:02:50.216Z,13.52
2023-05-10T22:05:53.053Z,13.58
2023-05-10T22:08:55.557Z,13.58
2023-05-10T22:11:58.366Z,13.55
2023-05-10T22:18:08.302Z,13.47
2023-05-10T22:21:10.922Z,13.49
2023-05-10T22:24:13.735Z,13.50
2023-05-10T22:27:16.393Z,13.48
2023-05-10T22:30:20.173Z,13.43
2023-05-10T22:33:22.822Z,13.34
2023-05-10T22:36:25.578Z,13.33
2023-05-10T22:39:28.269Z,13.30
2023-05-10T22:42:31.043Z,13.30
2023-05-10T22:45:33.462Z,13.28
2023-05-10T22:48:36.416Z,13.27
2023-05-10T22:51:38.836Z,13.24
2023-05-10T22:54:41.514Z,13.25
2023-05-10T22:57:44.000Z,13.29
2023-05-10T23:00:46.766Z,13.27
2023-05-10T23:03:49.283Z,13.32
2023-05-10T23:06:52.016Z,13.29
2023-05-10T23:09:54.521Z,13.29
2023-05-10T23:12:57.369Z,13.31
2023-05-10T23:16:07.468Z,13.27
2023-05-10T23:19:10.248Z,13.24
2023-05-10T23:22:13.716Z,13.19
2023-05-10T23:25:17.850Z,13.13
2023-05-10T23:28:20.326Z,13.06
2023-05-10T23:31:23.121Z,12.83
2023-05-10T23:34:25.560Z,12.90
2023-05-10T23:37:29.999Z,12.82
2023-05-10T23:40:35.448Z,12.73
2023-05-10T23:43:38.250Z,12.65
2023-05-10T23:46:42.263Z,12.58
2023-05-10T23:49:45.067Z,12.60
2023-05-10T23:52:48.260Z,12.65
2023-05-10T23:55:51.080Z,12.64
2023-05-10T23:58:53.491Z,12.64
